createdAt,value
2022-12-28T00:00:41.834Z,1004.14
2022-12-28T00:01:41.857Z,1004.15
2022-12-28T00:02:41.842Z,1004.09
2022-12-28T00:03:41.762Z,1004.04
2022-12-28T00:04:41.754Z,1003.93
2022-12-28T00:05:41.751Z,1003.94
2022-12-28T00:06:41.732Z,1003.93
2022-12-28T00:07:41.727Z,1003.92
2022-12-28T00:08:41.708Z,1003.84
2022-12-28T00:09:41.701Z,1003.92
2022-12-28T00:11:08.313Z,1003.86
2022-12-28T00:11:42.953Z,1003.88
2022-12-28T00:12:41.665Z,1003.84
2022-12-28T00:13:47.675Z,1003.81
2022-12-28T00:14:41.699Z,1003.81
2022-12-28T00:15:41.667Z,1003.79
2022-12-28T00:16:41.755Z,1003.82
2022-12-28T00:17:41.627Z,1003.82
2022-12-28T00:18:41.811Z,1003.86
2022-12-28T00:19:41.682Z,1003.90
2022-12-28T00:20:41.581Z,1003.89
2022-12-28T00:21:41.594Z,1003.90
2022-12-28T00:22:41.563Z,1003.95
2022-12-28T00:23:41.577Z,1003.99
2022-12-28T00:24:41.557Z,1003.97
2022-12-28T00:25:41.744Z,1003.92
2022-12-28T00:26:41.677Z,1003.93
2022-12-28T00:27:41.737Z,1003.91
2022-12-28T00:28:41.522Z,1003.87
2022-12-28T00:29:41.507Z,1003.88
2022-12-28T00:30:41.492Z,1003.90
2022-12-28T00:31:41.735Z,1003.96
2022-12-28T00:32:41.467Z,1003.91
2022-12-28T00:33:41.479Z,1003.91
2022-12-28T00:34:41.471Z,1003.85
2022-12-28T00:35:47.484Z,1003.86
2022-12-28T00:37:08.789Z,1003.89
2022-12-28T00:37:42.871Z,1003.89
2022-12-28T00:38:41.401Z,1003.88
2022-12-28T00:39:41.420Z,1003.84
2022-12-28T00:40:41.380Z,1003.82
2022-12-28T00:41:41.575Z,1003.80
2022-12-28T00:42:41.468Z,1003.81
2022-12-28T00:43:41.584Z,1003.75
2022-12-28T00:44:41.339Z,1003.70
2022-12-28T00:45:41.612Z,1003.70
2022-12-28T00:46:41.327Z,1003.67
2022-12-28T00:47:41.553Z,1003.59
2022-12-28T00:48:41.291Z,1003.54
2022-12-28T00:49:41.304Z,1003.53
2022-12-28T00:50:41.290Z,1003.52
2022-12-28T00:51:41.517Z,1003.48
2022-12-28T00:52:41.255Z,1003.41
2022-12-28T00:53:41.269Z,1003.43
2022-12-28T00:54:41.239Z,1003.38
2022-12-28T00:55:41.247Z,1003.36
2022-12-28T00:56:41.224Z,1003.35
2022-12-28T00:57:41.218Z,1003.38
2022-12-28T00:58:41.211Z,1003.44
2022-12-28T00:59:41.226Z,1003.45
2022-12-28T01:00:41.230Z,1003.41
2022-12-28T01:01:41.327Z,1003.34
2022-12-28T01:02:41.409Z,1003.28
2022-12-28T01:03:41.223Z,1003.21
2022-12-28T01:04:41.152Z,1003.30
2022-12-28T01:05:41.130Z,1003.33
2022-12-28T01:06:41.126Z,1003.32
2022-12-28T01:07:41.111Z,1003.36
2022-12-28T01:08:41.302Z,1003.38
2022-12-28T01:09:41.107Z,1003.33
2022-12-28T01:10:47.112Z,1003.32
2022-12-28T01:11:41.085Z,1003.29
2022-12-28T01:12:41.054Z,1003.24
2022-12-28T01:13:41.047Z,1003.30
2022-12-28T01:14:41.120Z,1003.23
2022-12-28T01:15:41.029Z,1003.23
2022-12-28T01:16:41.091Z,1003.22
2022-12-28T01:17:47.026Z,1003.24
2022-12-28T01:18:40.989Z,1003.26
2022-12-28T01:19:41.021Z,1003.29
2022-12-28T01:20:41.051Z,1003.32
2022-12-28T01:21:41.033Z,1003.28
2022-12-28T01:22:40.948Z,1003.30
2022-12-28T01:23:40.943Z,1003.24
2022-12-28T01:24:41.009Z,1003.21
2022-12-28T01:25:40.935Z,1003.20
2022-12-28T01:26:40.997Z,1003.16
2022-12-28T01:27:40.917Z,1003.08
2022-12-28T01:28:40.899Z,1003.08
2022-12-28T01:29:40.961Z,1003.01
2022-12-28T01:30:40.864Z,1003.06
2022-12-28T01:31:41.129Z,1003.00
2022-12-28T01:32:40.886Z,1002.94
2022-12-28T01:33:40.838Z,1002.93
2022-12-28T01:34:40.841Z,1002.99
2022-12-28T01:35:41.057Z,1003.00
2022-12-28T01:36:40.807Z,1003.04
2022-12-28T01:37:40.856Z,1003.03
2022-12-28T01:38:40.790Z,1003.04
2022-12-28T01:39:40.816Z,1003.06
2022-12-28T01:40:40.768Z,1003.06
2022-12-28T01:41:40.751Z,1003.08
2022-12-28T01:42:40.804Z,1003.12
2022-12-28T01:43:40.742Z,1003.06
2022-12-28T01:44:40.805Z,1003.05
2022-12-28T01:45:40.745Z,1003.04
2022-12-28T01:46:40.727Z,1003.03
2022-12-28T01:47:40.696Z,1003.01
2022-12-28T01:48:40.968Z,1002.95
2022-12-28T01:49:40.668Z,1002.96
2022-12-28T01:50:40.710Z,1002.90
2022-12-28T01:51:40.682Z,1002.87
2022-12-28T01:52:40.660Z,1002.86
2022-12-28T01:53:40.638Z,1002.82
2022-12-28T01:54:40.627Z,1002.81
2022-12-28T01:55:40.611Z,1002.82
2022-12-28T01:56:40.635Z,1002.80
2022-12-28T01:57:40.595Z,1002.73
2022-12-28T01:58:40.591Z,1002.71
2022-12-28T01:59:40.587Z,1002.66
2022-12-28T02:00:40.607Z,1002.66
2022-12-28T02:01:40.636Z,1002.63
2022-12-28T02:02:40.943Z,1002.62
2022-12-28T02:03:40.543Z,1002.65
2022-12-28T02:04:40.534Z,1002.60
2022-12-28T02:05:40.542Z,1002.67
2022-12-28T02:06:40.523Z,1002.56
2022-12-28T02:07:40.507Z,1002.59
2022-12-28T02:08:40.890Z,1002.57
2022-12-28T02:09:40.473Z,1002.56
2022-12-28T02:10:45.489Z,1002.56
2022-12-28T02:11:42.445Z,1002.55
2022-12-28T02:12:40.670Z,1002.57
2022-12-28T02:13:40.426Z,1002.55
2022-12-28T02:14:40.444Z,1002.53
2022-12-28T02:15:40.404Z,1002.53
2022-12-28T02:16:40.502Z,1002.52
2022-12-28T02:17:40.383Z,1002.55
2022-12-28T02:18:40.387Z,1002.50
2022-12-28T02:19:40.391Z,1002.52
2022-12-28T02:20:40.364Z,1002.49
2022-12-28T02:21:40.546Z,1002.47
2022-12-28T02:22:40.357Z,1002.45
2022-12-28T02:23:40.344Z,1002.46
2022-12-28T02:24:40.336Z,1002.45
2022-12-28T02:25:40.312Z,1002.40
2022-12-28T02:26:40.371Z,1002.36
2022-12-28T02:27:40.303Z,1002.39
2022-12-28T02:28:40.298Z,1002.43
2022-12-28T02:29:40.673Z,1002.42
2022-12-28T02:30:40.347Z,1002.46
2022-12-28T02:31:40.250Z,1002.43
2022-12-28T02:32:40.483Z,1002.42
2022-12-28T02:33:40.288Z,1002.45
2022-12-28T02:34:40.217Z,1002.47
2022-12-28T02:35:40.251Z,1002.44
2022-12-28T02:36:40.192Z,1002.47
2022-12-28T02:37:40.184Z,1002.43
2022-12-28T02:38:40.307Z,1002.44
2022-12-28T02:39:40.208Z,1002.42
2022-12-28T02:40:40.151Z,1002.39
2022-12-28T02:41:40.337Z,1002.37
2022-12-28T02:42:40.139Z,1002.33
2022-12-28T02:43:40.114Z,1002.35
2022-12-28T02:44:40.108Z,1002.35
2022-12-28T02:45:40.206Z,1002.31
2022-12-28T02:46:40.102Z,1002.31
2022-12-28T02:47:40.275Z,1002.25
2022-12-28T02:48:40.079Z,1002.28
2022-12-28T02:49:40.067Z,1002.24
2022-12-28T02:50:40.093Z,1002.26
2022-12-28T02:51:40.044Z,1002.23
2022-12-28T02:52:40.032Z,1002.19
2022-12-28T02:53:40.012Z,1002.11
2022-12-28T02:54:40.021Z,1002.12
2022-12-28T02:55:40.068Z,1002.06
2022-12-28T02:56:40.003Z,1002.01
2022-12-28T02:57:39.975Z,1002.00
2022-12-28T02:58:40.197Z,1002.01
2022-12-28T02:59:40.032Z,1002.00
2022-12-28T03:00:39.958Z,1001.97
2022-12-28T03:01:40.044Z,1001.97
2022-12-28T03:02:40.097Z,1001.96
2022-12-28T03:03:39.962Z,1001.99
2022-12-28T03:04:39.927Z,1002.03
2022-12-28T03:05:39.922Z,1001.97
2022-12-28T03:06:39.883Z,1001.98
2022-12-28T03:07:39.871Z,1001.96
2022-12-28T03:08:39.884Z,1001.98
2022-12-28T03:09:39.855Z,1001.95
2022-12-28T03:10:39.842Z,1001.95
2022-12-28T03:11:39.856Z,1001.98
2022-12-28T03:12:40.045Z,1001.94
2022-12-28T03:13:39.871Z,1001.96
2022-12-28T03:14:39.943Z,1001.97
2022-12-28T03:15:39.850Z,1001.96
2022-12-28T03:16:40.163Z,1001.92
2022-12-28T03:17:39.765Z,1001.93
2022-12-28T03:18:39.835Z,1001.89
2022-12-28T03:19:39.746Z,1001.84
2022-12-28T03:20:39.743Z,1001.89
2022-12-28T03:21:39.886Z,1001.88
2022-12-28T03:22:39.737Z,1001.86
2022-12-28T03:23:45.737Z,1001.85
2022-12-28T03:24:45.808Z,1001.90
2022-12-28T03:25:39.805Z,1001.86
2022-12-28T03:26:39.767Z,1001.86
2022-12-28T03:27:39.739Z,1001.82
2022-12-28T03:28:39.669Z,1001.88
2022-12-28T03:29:45.652Z,1001.83
2022-12-28T03:30:39.739Z,1001.80
2022-12-28T03:31:41.697Z,1001.77
2022-12-28T03:32:39.657Z,1001.78
2022-12-28T03:33:39.669Z,1001.82
2022-12-28T03:34:45.645Z,1001.82
2022-12-28T03:35:39.588Z,1001.83
2022-12-28T03:36:39.654Z,1001.79
2022-12-28T03:37:39.569Z,1001.83
2022-12-28T03:38:45.559Z,1001.80
2022-12-28T03:39:39.612Z,1001.81
2022-12-28T03:40:45.657Z,1001.78
2022-12-28T03:41:39.543Z,1001.77
2022-12-28T03:42:39.713Z,1001.81
2022-12-28T03:43:39.530Z,1001.76
2022-12-28T03:44:39.501Z,1001.77
2022-12-28T03:45:45.101Z,1001.79
2022-12-28T03:46:40.765Z,1001.78
2022-12-28T03:47:39.477Z,1001.77
2022-12-28T03:48:39.452Z,1001.80
2022-12-28T03:49:39.447Z,1001.76
2022-12-28T03:50:39.427Z,1001.76
2022-12-28T03:51:39.700Z,1001.81
2022-12-28T03:52:39.407Z,1001.81
2022-12-28T03:53:39.410Z,1001.77
2022-12-28T03:54:39.601Z,1001.75
2022-12-28T03:55:39.388Z,1001.78
2022-12-28T03:56:45.382Z,1001.74
2022-12-28T03:57:39.373Z,1001.71
2022-12-28T03:58:39.383Z,1001.70
2022-12-28T03:59:45.420Z,1001.62
2022-12-28T04:00:39.333Z,1001.59
2022-12-28T04:01:39.521Z,1001.54
2022-12-28T04:02:39.509Z,1001.55
2022-12-28T04:03:39.590Z,1001.54
2022-12-28T04:04:39.312Z,1001.59
2022-12-28T04:05:39.285Z,1001.52
2022-12-28T04:06:39.313Z,1001.53
2022-12-28T04:07:39.274Z,1001.57
2022-12-28T04:08:39.266Z,1001.53
2022-12-28T04:09:39.248Z,1001.47
2022-12-28T04:10:39.233Z,1001.52
2022-12-28T04:11:39.226Z,1001.45
2022-12-28T04:12:39.209Z,1001.45
2022-12-28T04:13:39.232Z,1001.43
2022-12-28T04:14:39.199Z,1001.37
2022-12-28T04:16:39.178Z,1001.29
2022-12-28T04:17:45.200Z,1001.26
2022-12-28T04:18:39.180Z,1001.27
2022-12-28T04:19:39.157Z,1001.27
2022-12-28T04:20:39.210Z,1001.31
2022-12-28T04:21:39.169Z,1001.32
2022-12-28T04:22:39.105Z,1001.32
2022-12-28T04:23:39.239Z,1001.29
2022-12-28T04:24:45.095Z,1001.38
2022-12-28T04:26:39.258Z,1001.30
2022-12-28T04:27:45.089Z,1001.33
2022-12-28T04:28:39.151Z,1001.33
2022-12-28T04:29:39.052Z,1001.36
2022-12-28T04:30:39.299Z,1001.30
2022-12-28T04:31:39.286Z,1001.31
2022-12-28T04:32:39.008Z,1001.29
2022-12-28T04:33:39.214Z,1001.30
2022-12-28T04:35:38.988Z,1001.29
2022-12-28T04:36:38.982Z,1001.25
2022-12-28T04:37:38.970Z,1001.19
2022-12-28T04:38:39.149Z,1001.20
2022-12-28T04:39:55.691Z,1001.20
2022-12-28T04:41:38.919Z,1001.26
2022-12-28T04:42:38.908Z,1001.30
2022-12-28T04:43:38.908Z,1001.26
2022-12-28T04:44:38.872Z,1001.32
2022-12-28T04:46:38.900Z,1001.23
2022-12-28T04:47:38.906Z,1001.26
2022-12-28T04:48:38.843Z,1001.27
2022-12-28T04:49:39.321Z,1001.30
2022-12-28T04:51:38.808Z,1001.36
2022-12-28T04:53:38.795Z,1001.35
2022-12-28T04:54:38.847Z,1001.40
2022-12-28T04:55:38.818Z,1001.36
2022-12-28T04:57:38.966Z,1001.40
2022-12-28T04:58:38.724Z,1001.37
2022-12-28T04:59:38.732Z,1001.38
2022-12-28T05:00:38.786Z,1001.34
2022-12-28T05:01:38.953Z,1001.35
2022-12-28T05:02:39.191Z,1001.32
2022-12-28T05:03:38.725Z,1001.28
2022-12-28T05:04:38.716Z,1001.23
2022-12-28T05:05:38.675Z,1001.31
2022-12-28T05:06:38.649Z,1001.33
2022-12-28T05:09:38.635Z,1001.22
2022-12-28T05:10:38.624Z,1001.22
2022-12-28T05:11:38.631Z,1001.19
2022-12-28T05:12:38.585Z,1001.21
2022-12-28T05:13:38.613Z,1001.16
2022-12-28T05:15:38.565Z,1001.20
2022-12-28T05:18:38.737Z,1001.19
2022-12-28T05:20:38.504Z,1001.23
2022-12-28T05:21:38.521Z,1001.21
2022-12-28T05:22:41.116Z,1001.22
2022-12-28T05:23:38.703Z,1001.19
2022-12-28T05:26:44.664Z,1001.21
2022-12-28T05:27:44.495Z,1001.21
2022-12-28T05:28:38.443Z,1001.23
2022-12-28T05:31:38.531Z,1001.21
2022-12-28T05:32:38.437Z,1001.22
2022-12-28T05:34:38.369Z,1001.14
2022-12-28T05:35:38.388Z,1001.12
2022-12-28T05:36:38.347Z,1001.12
2022-12-28T05:37:38.350Z,1001.12
2022-12-28T05:38:38.361Z,1001.09
2022-12-28T05:39:38.321Z,1001.04
2022-12-28T05:40:38.309Z,1001.07
2022-12-28T05:41:38.303Z,1000.99
2022-12-28T05:43:38.563Z,1000.97
2022-12-28T05:45:38.253Z,1000.96
2022-12-28T05:46:38.276Z,1000.91
2022-12-28T05:47:38.250Z,1000.92
2022-12-28T05:48:38.445Z,1000.91
2022-12-28T05:50:38.204Z,1000.85
2022-12-28T05:51:39.904Z,1000.83
2022-12-28T05:52:38.838Z,1000.86
2022-12-28T05:54:44.179Z,1000.82
2022-12-28T05:55:38.147Z,1000.80
2022-12-28T05:57:38.140Z,1000.80
2022-12-28T05:58:38.116Z,1000.77
2022-12-28T06:00:44.103Z,1000.72
2022-12-28T06:03:38.373Z,1000.74
2022-12-28T06:04:38.090Z,1000.74
2022-12-28T06:05:38.096Z,1000.73
2022-12-28T06:06:44.146Z,1000.69
2022-12-28T06:09:38.015Z,1000.66
2022-12-28T06:13:37.977Z,1000.64
2022-12-28T06:15:37.968Z,1000.62
2022-12-28T06:16:38.158Z,1000.63
2022-12-28T06:19:37.916Z,1000.60
2022-12-28T06:21:37.902Z,1000.60
2022-12-28T06:22:38.110Z,1000.58
2022-12-28T06:23:37.878Z,1000.55
2022-12-28T06:24:38.260Z,1000.56
2022-12-28T06:26:37.840Z,1000.56
2022-12-28T06:27:43.846Z,1000.63
2022-12-28T06:28:44.012Z,1000.63
2022-12-28T06:29:37.805Z,1000.61
2022-12-28T06:30:37.792Z,1000.62
2022-12-28T06:32:37.968Z,1000.56
2022-12-28T06:34:37.748Z,1000.60
2022-12-28T06:35:43.751Z,1000.66
2022-12-28T06:36:37.826Z,1000.55
2022-12-28T06:37:37.927Z,1000.55
2022-12-28T06:38:43.952Z,1000.58
2022-12-28T06:39:37.713Z,1000.51
2022-12-28T06:41:45.337Z,1000.47
2022-12-28T06:42:37.663Z,1000.50
2022-12-28T06:43:37.675Z,1000.49
2022-12-28T06:44:42.549Z,1000.51
2022-12-28T06:46:37.823Z,1000.49
2022-12-28T06:47:37.620Z,1000.52
2022-12-28T06:48:37.617Z,1000.54
2022-12-28T06:49:37.598Z,1000.49
2022-12-28T06:51:37.790Z,1000.46
2022-12-28T06:52:37.566Z,1000.48
2022-12-28T06:53:37.561Z,1000.49
2022-12-28T06:55:37.537Z,1000.49
2022-12-28T06:56:37.541Z,1000.46
2022-12-28T06:57:37.615Z,1000.49
2022-12-28T06:58:37.761Z,1000.46
2022-12-28T06:59:43.520Z,1000.43
2022-12-28T07:00:43.482Z,1000.39
2022-12-28T07:01:37.848Z,1000.34
2022-12-28T07:02:37.791Z,1000.35
2022-12-28T07:03:37.429Z,1000.37
2022-12-28T07:04:37.460Z,1000.35
2022-12-28T07:05:37.381Z,1000.36
2022-12-28T07:07:37.370Z,1000.39
2022-12-28T07:08:37.341Z,1000.40
2022-12-28T07:09:43.350Z,1000.41
2022-12-28T07:10:37.357Z,1000.42
2022-12-28T07:11:37.316Z,1000.42
2022-12-28T07:12:37.315Z,1000.43
2022-12-28T07:13:37.301Z,1000.41
2022-12-28T07:14:37.309Z,1000.41
2022-12-28T07:15:37.272Z,1000.44
2022-12-28T07:17:02.357Z,1000.42
2022-12-28T07:18:02.157Z,1000.43
2022-12-28T07:19:02.354Z,1000.40
2022-12-28T07:20:02.118Z,1000.38
2022-12-28T07:21:02.122Z,1000.38
2022-12-28T07:22:02.094Z,1000.33
2022-12-28T07:23:02.092Z,1000.39
2022-12-28T07:24:02.111Z,1000.44
2022-12-28T07:25:02.088Z,1000.40
2022-12-28T07:26:02.086Z,1000.42
2022-12-28T07:27:02.035Z,1000.39
2022-12-28T07:28:02.035Z,1000.39
2022-12-28T07:29:02.032Z,1000.32
2022-12-28T07:30:02.034Z,1000.35
2022-12-28T07:31:02.278Z,1000.41
2022-12-28T07:32:01.987Z,1000.43
2022-12-28T07:33:08.397Z,1000.39
2022-12-28T07:34:07.994Z,1000.38
2022-12-28T07:35:01.950Z,1000.38
2022-12-28T07:36:01.950Z,1000.32
2022-12-28T07:37:01.960Z,1000.33
2022-12-28T07:38:02.170Z,1000.35
2022-12-28T07:39:01.960Z,1000.30
2022-12-28T07:40:01.912Z,1000.30
2022-12-28T07:41:40.689Z,1000.34
2022-12-28T07:42:40.626Z,1000.31
2022-12-28T07:43:40.644Z,1000.32
2022-12-28T07:44:42.892Z,1000.34
2022-12-28T07:45:41.751Z,1000.32
2022-12-28T07:46:40.603Z,1000.33
2022-12-28T07:47:40.586Z,1000.27
2022-12-28T07:48:40.570Z,1000.29
2022-12-28T07:49:40.616Z,1000.35
2022-12-28T07:50:40.553Z,1000.33
2022-12-28T07:51:40.545Z,1000.29
2022-12-28T07:52:40.529Z,1000.35
2022-12-28T07:53:40.518Z,1000.33
2022-12-28T07:54:46.725Z,1000.26
2022-12-28T07:55:40.506Z,1000.33
2022-12-28T07:57:05.392Z,1000.29
2022-12-28T07:58:05.350Z,1000.29
2022-12-28T07:59:05.606Z,1000.32
2022-12-28T08:00:05.361Z,1000.28
2022-12-28T08:01:05.421Z,1000.28
2022-12-28T08:02:05.532Z,1000.23
2022-12-28T08:03:05.297Z,1000.25
2022-12-28T08:04:05.397Z,1000.27
2022-12-28T08:05:05.269Z,1000.26
2022-12-28T08:06:05.259Z,1000.23
2022-12-28T08:07:05.447Z,1000.21
2022-12-28T08:08:05.262Z,1000.22
2022-12-28T08:09:05.228Z,1000.14
2022-12-28T08:10:05.227Z,1000.14
2022-12-28T08:11:05.207Z,1000.18
2022-12-28T08:12:05.198Z,1000.13
2022-12-28T08:13:05.203Z,1000.13
2022-12-28T08:14:11.459Z,1000.11
2022-12-28T08:15:05.160Z,1000.07
2022-12-28T08:16:05.327Z,1000.10
2022-12-28T08:17:35.894Z,1000.09
2022-12-28T08:18:41.884Z,1000.16
2022-12-28T08:19:35.858Z,1000.17
2022-12-28T08:20:35.865Z,1000.10
2022-12-28T08:21:35.836Z,1000.09
2022-12-28T08:22:35.840Z,1000.09
2022-12-28T08:23:36.027Z,1000.15
2022-12-28T08:24:35.821Z,1000.14
2022-12-28T08:25:36.017Z,1000.16
2022-12-28T08:26:35.801Z,1000.09
2022-12-28T08:27:38.627Z,1000.10
2022-12-28T08:28:36.012Z,1000.15
2022-12-28T08:29:35.777Z,1000.08
2022-12-28T08:30:41.780Z,1000.10
2022-12-28T08:31:35.872Z,1000.08
2022-12-28T08:32:35.942Z,1000.10
2022-12-28T08:33:35.917Z,1000.14
2022-12-28T08:34:35.722Z,1000.16
2022-12-28T08:35:35.707Z,1000.14
2022-12-28T08:36:35.700Z,1000.14
2022-12-28T08:37:35.687Z,1000.15
2022-12-28T08:38:35.709Z,1000.11
2022-12-28T08:39:35.856Z,1000.08
2022-12-28T08:40:35.650Z,1000.06
2022-12-28T08:41:35.672Z,1000.09
2022-12-28T08:42:35.644Z,1000.10
2022-12-28T08:43:35.620Z,1000.10
2022-12-28T08:44:41.645Z,1000.12
2022-12-28T08:45:35.620Z,1000.10
2022-12-28T08:46:35.738Z,1000.07
2022-12-28T08:47:35.774Z,1000.08
2022-12-28T08:48:35.576Z,1000.07
2022-12-28T08:49:35.557Z,1000.10
2022-12-28T08:50:35.586Z,1000.14
2022-12-28T08:51:35.571Z,1000.13
2022-12-28T08:52:35.738Z,1000.13
2022-12-28T08:53:35.741Z,1000.13
2022-12-28T08:54:35.540Z,1000.13
2022-12-28T08:55:35.488Z,1000.17
2022-12-28T08:56:35.533Z,1000.15
2022-12-28T08:57:35.471Z,1000.12
2022-12-28T08:58:35.472Z,1000.12
2022-12-28T08:59:35.465Z,1000.12
2022-12-28T09:00:35.572Z,1000.08
2022-12-28T09:01:42.647Z,1000.12
2022-12-28T09:02:37.707Z,1000.18
2022-12-28T09:03:35.495Z,1000.16
2022-12-28T09:04:35.404Z,1000.15
2022-12-28T09:05:39.472Z,1000.17
2022-12-28T09:06:35.390Z,1000.16
2022-12-28T09:07:35.370Z,1000.18
2022-12-28T09:08:35.572Z,1000.13
2022-12-28T09:09:35.469Z,1000.16
2022-12-28T09:10:35.333Z,1000.11
2022-12-28T09:11:35.620Z,1000.12
2022-12-28T09:12:35.564Z,1000.12
2022-12-28T09:13:35.536Z,1000.11
2022-12-28T09:14:41.717Z,1000.14
2022-12-28T09:15:35.317Z,1000.13
2022-12-28T09:16:41.312Z,1000.18
2022-12-28T09:17:35.269Z,1000.17
2022-12-28T09:18:41.384Z,1000.11
2022-12-28T09:19:35.266Z,1000.12
2022-12-28T09:20:35.458Z,1000.12
2022-12-28T09:21:35.290Z,1000.07
2022-12-28T09:22:35.412Z,1000.03
2022-12-28T09:23:35.208Z,1000.08
2022-12-28T09:24:35.192Z,1000.07
2022-12-28T09:25:35.192Z,1000.04
2022-12-28T09:26:35.429Z,1000.03
2022-12-28T09:27:35.168Z,1000.02
2022-12-28T09:28:35.164Z,1000.01
2022-12-28T09:29:35.147Z,999.97
2022-12-28T09:31:12.144Z,999.95
2022-12-28T09:32:05.876Z,999.91
2022-12-28T09:33:05.854Z,999.90
2022-12-28T09:34:34.875Z,999.92
2022-12-28T09:35:06.894Z,999.94
2022-12-28T09:36:11.828Z,999.93
2022-12-28T09:37:05.806Z,999.98
2022-12-28T09:38:05.995Z,999.95
2022-12-28T09:39:05.856Z,1000.00
2022-12-28T09:40:05.784Z,999.98
2022-12-28T09:41:05.757Z,999.95
2022-12-28T09:42:05.775Z,999.92
2022-12-28T09:43:05.741Z,999.92
2022-12-28T09:44:05.946Z,999.93
2022-12-28T09:45:05.883Z,999.89
2022-12-28T09:46:05.773Z,999.88
2022-12-28T09:47:05.688Z,999.89
2022-12-28T09:48:05.731Z,999.85
2022-12-28T09:49:05.675Z,999.87
2022-12-28T09:50:05.665Z,999.83
2022-12-28T09:51:05.659Z,999.82
2022-12-28T09:52:05.676Z,999.84
2022-12-28T09:53:05.677Z,999.79
2022-12-28T09:54:05.832Z,999.80
2022-12-28T09:55:11.628Z,999.77
2022-12-28T09:56:05.608Z,999.79
2022-12-28T09:57:05.587Z,999.75
2022-12-28T09:58:05.583Z,999.73
2022-12-28T09:59:05.573Z,999.72
2022-12-28T10:00:05.668Z,999.68
2022-12-28T10:01:05.995Z,999.69
2022-12-28T10:02:05.775Z,999.67
2022-12-28T10:03:05.611Z,999.66
2022-12-28T10:04:05.551Z,999.69
2022-12-28T10:05:05.509Z,999.65
2022-12-28T10:06:05.529Z,999.62
2022-12-28T10:07:05.603Z,999.59
2022-12-28T10:08:05.708Z,999.55
2022-12-28T10:09:11.665Z,999.56
2022-12-28T10:10:05.462Z,999.51
2022-12-28T10:11:05.449Z,999.50
2022-12-28T10:12:05.647Z,999.53
2022-12-28T10:13:09.385Z,999.49
2022-12-28T10:14:07.422Z,999.51
2022-12-28T10:15:40.500Z,999.50
2022-12-28T10:16:45.507Z,999.47
2022-12-28T10:17:41.532Z,999.50
2022-12-28T10:18:40.266Z,999.48
2022-12-28T10:19:40.281Z,999.45
2022-12-28T10:20:40.256Z,999.43
2022-12-28T10:21:40.443Z,999.41
2022-12-28T10:22:44.892Z,999.43
2022-12-28T10:24:04.521Z,999.42
2022-12-28T10:24:41.675Z,999.40
2022-12-28T10:25:40.187Z,999.41
2022-12-28T10:26:40.187Z,999.42
2022-12-28T10:27:40.366Z,999.35
2022-12-28T10:28:45.591Z,999.35
2022-12-28T10:29:41.411Z,999.35
2022-12-28T10:30:40.135Z,999.27
2022-12-28T10:31:46.377Z,999.30
2022-12-28T10:32:40.115Z,999.34
2022-12-28T10:33:40.320Z,999.33
2022-12-28T10:34:40.299Z,999.30
2022-12-28T10:35:46.181Z,999.21
2022-12-28T10:36:40.154Z,999.24
2022-12-28T10:37:40.057Z,999.27
2022-12-28T10:38:40.049Z,999.19
2022-12-28T10:39:40.042Z,999.18
2022-12-28T10:40:40.126Z,999.15
2022-12-28T10:41:46.223Z,999.21
2022-12-28T10:42:40.027Z,999.16
2022-12-28T10:43:39.989Z,999.07
2022-12-28T10:44:40.962Z,999.05
2022-12-28T10:46:18.780Z,999.10
2022-12-28T10:47:18.711Z,999.13
2022-12-28T10:48:18.919Z,999.12
2022-12-28T10:49:18.684Z,999.12
2022-12-28T10:50:36.622Z,999.08
2022-12-28T10:51:19.730Z,999.06
2022-12-28T10:52:18.657Z,999.04
2022-12-28T10:53:20.920Z,999.07
2022-12-28T10:54:27.657Z,999.03
2022-12-28T10:55:19.663Z,999.04
2022-12-28T10:56:18.612Z,998.99
2022-12-28T10:57:18.687Z,998.97
2022-12-28T10:58:29.579Z,998.98
2022-12-28T10:59:19.625Z,998.98
2022-12-28T11:00:18.593Z,998.98
2022-12-28T11:01:18.932Z,998.93
2022-12-28T11:02:24.903Z,998.95
2022-12-28T11:03:18.574Z,998.93
2022-12-28T11:04:24.533Z,998.86
2022-12-28T11:05:18.532Z,998.85
2022-12-28T11:06:24.217Z,998.80
2022-12-28T11:07:19.683Z,998.80
2022-12-28T11:08:18.494Z,998.76
2022-12-28T11:09:18.495Z,998.78
2022-12-28T11:10:18.463Z,998.71
2022-12-28T11:11:18.463Z,998.67
2022-12-28T11:13:07.409Z,998.64
2022-12-28T11:14:01.181Z,998.62
2022-12-28T11:15:07.374Z,998.59
2022-12-28T11:16:01.231Z,998.58
2022-12-28T11:17:01.364Z,998.60
2022-12-28T11:18:01.180Z,998.57
2022-12-28T11:19:01.137Z,998.55
2022-12-28T11:20:01.145Z,998.54
2022-12-28T11:21:01.112Z,998.47
2022-12-28T11:22:01.117Z,998.45
2022-12-28T11:23:01.106Z,998.47
2022-12-28T11:24:01.085Z,998.48
2022-12-28T11:25:01.062Z,998.43
2022-12-28T11:26:01.259Z,998.43
2022-12-28T11:27:01.048Z,998.38
2022-12-28T11:28:01.040Z,998.39
2022-12-28T11:29:01.229Z,998.37
2022-12-28T11:30:08.302Z,998.34
2022-12-28T11:31:01.016Z,998.35
2022-12-28T11:32:01.279Z,998.29
2022-12-28T11:33:00.971Z,998.27
2022-12-28T11:34:00.971Z,998.23
2022-12-28T11:35:01.162Z,998.22
2022-12-28T11:36:02.554Z,998.21
2022-12-28T11:37:00.932Z,998.17
2022-12-28T11:38:01.275Z,998.18
2022-12-28T11:39:00.936Z,998.14
2022-12-28T11:40:01.108Z,998.18
2022-12-28T11:41:00.892Z,998.15
2022-12-28T11:43:00.881Z,998.16
2022-12-28T11:44:00.874Z,998.07
2022-12-28T11:45:00.895Z,998.09
2022-12-28T11:46:00.944Z,998.05
2022-12-28T11:47:00.827Z,998.09
2022-12-28T11:48:00.815Z,998.13
2022-12-28T11:49:00.840Z,998.02
2022-12-28T11:50:00.821Z,998.10
2022-12-28T11:51:00.791Z,998.04
2022-12-28T11:52:00.792Z,997.98
2022-12-28T11:53:00.816Z,997.99
2022-12-28T11:54:00.960Z,997.94
2022-12-28T11:55:00.973Z,997.93
2022-12-28T11:56:00.763Z,997.85
2022-12-28T11:57:00.802Z,997.87
2022-12-28T11:58:06.940Z,997.85
2022-12-28T11:59:00.718Z,997.89
2022-12-28T12:00:00.712Z,997.90
2022-12-28T12:01:00.910Z,997.89
2022-12-28T12:02:00.795Z,997.87
2022-12-28T12:03:01.086Z,997.84
2022-12-28T12:04:00.671Z,997.80
2022-12-28T12:05:00.688Z,997.84
2022-12-28T12:06:00.686Z,997.78
2022-12-28T12:07:00.609Z,997.84
2022-12-28T12:08:00.604Z,997.81
2022-12-28T12:09:00.612Z,997.82
2022-12-28T12:10:06.649Z,997.80
2022-12-28T12:11:00.593Z,997.72
2022-12-28T12:12:00.593Z,997.71
2022-12-28T12:13:00.745Z,997.70
2022-12-28T12:14:00.601Z,997.63
2022-12-28T12:15:00.646Z,997.59
2022-12-28T12:16:00.525Z,997.65
2022-12-28T12:17:00.633Z,997.62
2022-12-28T12:18:00.500Z,997.57
2022-12-28T12:19:00.696Z,997.62
2022-12-28T12:20:00.895Z,997.60
2022-12-28T12:21:00.465Z,997.56
2022-12-28T12:22:00.464Z,997.50
2022-12-28T12:23:00.455Z,997.54
2022-12-28T12:24:00.551Z,997.53
2022-12-28T12:25:00.629Z,997.51
2022-12-28T12:26:00.454Z,997.54
2022-12-28T12:27:00.395Z,997.55
2022-12-28T12:28:00.607Z,997.47
2022-12-28T12:29:00.388Z,997.52
2022-12-28T12:30:35.248Z,997.49
2022-12-28T12:31:35.340Z,997.49
2022-12-28T12:32:35.714Z,997.43
2022-12-28T12:33:35.107Z,997.40
2022-12-28T12:34:35.291Z,997.42
2022-12-28T12:35:41.090Z,997.41
2022-12-28T12:36:35.111Z,997.32
2022-12-28T12:37:35.064Z,997.27
2022-12-28T12:38:35.041Z,997.23
2022-12-28T12:39:35.054Z,997.21
2022-12-28T12:40:35.042Z,997.20
2022-12-28T12:41:35.041Z,997.18
2022-12-28T12:42:34.994Z,997.12
2022-12-28T12:43:35.013Z,997.13
2022-12-28T12:44:34.985Z,997.14
2022-12-28T12:45:35.017Z,997.07
2022-12-28T12:46:34.998Z,997.05
2022-12-28T12:47:34.954Z,997.05
2022-12-28T12:48:34.936Z,996.99
2022-12-28T12:49:35.145Z,996.93
2022-12-28T12:50:34.915Z,996.88
2022-12-28T12:51:36.960Z,996.89
2022-12-28T12:52:39.198Z,996.83
2022-12-28T12:53:34.877Z,996.89
2022-12-28T12:54:34.885Z,996.86
2022-12-28T12:55:34.858Z,996.85
2022-12-28T12:56:34.861Z,996.83
2022-12-28T12:57:37.131Z,996.85
2022-12-28T12:58:34.827Z,996.79
2022-12-28T12:59:34.904Z,996.88
2022-12-28T13:00:35.019Z,996.74
2022-12-28T13:01:35.298Z,996.77
2022-12-28T13:02:35.027Z,996.73